Time;durP1;ratioP1;P1;durP2;ratioP2;P2;SDS_P1;SDS_P2;PMS_P1;PMS_P2;Temp;Humidity;BMP_temperature;BMP_pressure;BME280_temperature;BME280_humidity;BME280_pressure;Samples;Min_cycle;Max_cycle;Signal;HPM_P1;HPM_P2
2023/11/28 00:00:56;;;;;;;15.77;14.77;;;2.90;99.90;;;;;;4875450;29;20178;-39
2023/11/28 00:03:21;;;;;;;15.48;14.48;;;2.90;99.90;;;;;;4888785;29;20650;-39
2023/11/28 00:05:47;;;;;;;15.00;14.10;;;2.90;99.90;;;;;;4882190;29;20190;-38
2023/11/28 00:08:13;;;;;;;15.43;14.53;;;2.90;99.90;;;;;;4886362;29;20268;-39
2023/11/28 00:10:39;;;;;;;15.23;14.23;;;2.90;99.90;;;;;;4883731;29;20567;-38
2023/11/28 00:13:05;;;;;;;15.37;14.47;;;3.00;99.90;;;;;;4880256;29;20801;-39
2023/11/28 00:15:33;;;;;;;14.80;14.00;;;3.00;99.90;;;;;;4882407;29;20189;-40
2023/11/28 00:17:58;;;;;;;15.20;14.35;;;2.90;99.90;;;;;;4896722;29;20208;-38
2023/11/28 00:20:24;;;;;;;14.37;13.60;;;2.90;99.90;;;;;;4879964;29;20200;-38
2023/11/28 00:22:50;;;;;;;15.50;14.60;;;2.90;99.90;;;;;;4886997;29;20196;-38
2023/11/28 00:25:18;;;;;;;15.03;14.23;;;3.00;99.90;;;;;;4882796;29;20185;-38
2023/11/28 00:27:48;;;;;;;15.75;14.95;;;3.00;99.90;;;;;;4884757;29;20428;-39
2023/11/28 00:30:14;;;;;;;15.32;14.52;;;2.90;99.90;;;;;;4882496;29;20177;-38
2023/11/28 00:32:40;;;;;;;15.70;14.60;;;2.90;99.90;;;;;;4878969;29;20237;-39
2023/11/28 00:35:08;;;;;;;16.33;15.32;;;2.90;99.90;;;;;;4888903;29;20203;-39
2023/11/28 00:37:33;;;;;;;15.30;14.40;;;2.90;99.90;;;;;;4883274;29;20187;-37
2023/11/28 00:39:59;;;;;;;16.20;15.23;;;2.90;99.90;;;;;;4878766;29;20661;-37
2023/11/28 00:42:25;;;;;;;15.10;14.20;;;3.00;99.90;;;;;;4878459;29;20181;-39
2023/11/28 00:44:52;;;;;;;15.93;15.07;;;2.90;99.90;;;;;;4880710;29;20177;-38
2023/11/28 00:47:18;;;;;;;16.05;15.15;;;2.90;99.90;;;;;;4886650;29;20244;-39
2023/11/28 00:49:44;;;;;;;16.50;15.40;;;2.90;99.90;;;;;;4882342;29;20263;-38
2023/11/28 00:52:10;;;;;;;16.85;15.80;;;2.90;99.90;;;;;;4880797;29;20247;-39
2023/11/28 00:54:38;;;;;;;16.60;15.70;;;2.90;99.90;;;;;;4877582;29;21121;-39
2023/11/28 00:57:04;;;;;;;16.60;15.60;;;2.90;99.90;;;;;;4881237;29;20184;-39
2023/11/28 00:59:30;;;;;;;17.10;16.05;;;2.90;99.90;;;;;;4879472;29;20213;-39
2023/11/28 01:01:56;;;;;;;16.80;15.70;;;2.90;99.90;;;;;;4878866;29;20267;-39
2023/11/28 01:04:22;;;;;;;16.70;15.80;;;2.90;99.90;;;;;;4878161;29;20691;-38
2023/11/28 01:06:48;;;;;;;15.77;14.80;;;2.90;99.90;;;;;;4873458;29;20468;-39
2023/11/28 01:09:14;;;;;;;16.80;15.70;;;2.90;99.90;;;;;;4885790;29;20605;-39
2023/11/28 01:11:41;;;;;;;16.92;15.93;;;2.90;99.90;;;;;;4887930;29;20185;-39
2023/11/28 01:14:07;;;;;;;17.40;16.40;;;2.90;99.90;;;;;;4889595;29;20251;-39
2023/11/28 01:16:33;;;;;;;16.30;15.32;;;2.80;99.90;;;;;;4881897;29;20267;-40
2023/11/28 01:18:58;;;;;;;16.90;15.80;;;2.80;99.90;;;;;;4885755;29;20343;-38
2023/11/28 01:21:24;;;;;;;17.37;16.23;;;2.90;99.90;;;;;;4883791;29;21196;-38
2023/11/28 01:23:50;;;;;;;18.07;16.83;;;2.90;99.90;;;;;;4894760;29;20584;-38
2023/11/28 01:26:15;;;;;;;17.27;16.17;;;2.80;99.90;;;;;;4882050;29;20182;-38
2023/11/28 01:28:41;;;;;;;18.20;17.07;;;2.80;99.90;;;;;;4884585;29;20188;-38
2023/11/28 01:31:09;;;;;;;17.17;16.10;;;2.80;99.90;;;;;;4877451;29;20688;-38
2023/11/28 01:33:35;;;;;;;17.08;15.90;;;2.80;99.90;;;;;;4881824;29;20251;-38
2023/11/28 01:36:04;;;;;;;17.40;16.30;;;2.80;99.90;;;;;;4870730;29;20208;-38
2023/11/28 01:38:30;;;;;;;17.95;16.75;;;2.80;99.90;;;;;;4880915;29;20216;-39
2023/11/28 01:40:55;;;;;;;17.03;15.93;;;2.80;99.90;;;;;;4879032;29;20190;-39
2023/11/28 01:43:25;;;;;;;17.33;16.23;;;2.80;99.90;;;;;;4877720;29;20189;-39
2023/11/28 01:45:51;;;;;;;16.83;15.73;;;2.80;99.90;;;;;;4880064;29;20199;-38
2023/11/28 01:48:18;;;;;;;17.30;16.20;;;2.80;99.90;;;;;;4878970;29;20200;-38
2023/11/28 01:50:44;;;;;;;17.65;16.45;;;2.70;99.90;;;;;;4891683;29;20416;-39
2023/11/28 01:53:10;;;;;;;18.43;17.27;;;2.70;99.90;;;;;;4878067;29;20549;-39
2023/11/28 01:55:36;;;;;;;17.65;16.55;;;2.70;99.90;;;;;;4885986;29;21003;-39
2023/11/28 01:58:02;;;;;;;17.73;16.63;;;2.70;99.90;;;;;;4878986;29;20268;-38
2023/11/28 02:00:28;;;;;;;17.20;16.20;;;2.60;99.90;;;;;;4884108;29;20583;-40
2023/11/28 02:02:59;;;;;;;17.70;16.40;;;2.70;99.90;;;;;;4879585;29;20180;-38
2023/11/28 02:05:26;;;;;;;18.35;17.15;;;2.70;99.90;;;;;;4888441;29;20436;-38
2023/11/28 02:07:52;;;;;;;17.55;16.27;;;2.70;99.90;;;;;;4879872;29;20541;-38
2023/11/28 02:10:19;;;;;;;18.33;17.02;;;2.70;99.90;;;;;;4883379;29;20207;-38
2023/11/28 02:12:44;;;;;;;17.77;16.58;;;2.70;99.90;;;;;;4878755;29;20249;-38
2023/11/28 02:15:10;;;;;;;18.83;17.50;;;2.70;99.90;;;;;;4891102;29;20203;-38
2023/11/28 02:17:35;;;;;;;18.60;17.30;;;2.70;99.90;;;;;;4887806;29;20211;-38
2023/11/28 02:20:03;;;;;;;17.80;16.70;;;2.60;99.90;;;;;;4881598;29;20616;-38
2023/11/28 02:22:28;;;;;;;19.08;17.58;;;2.60;99.90;;;;;;4887657;29;20176;-39
2023/11/28 02:24:58;;;;;;;18.80;17.40;;;2.60;99.90;;;;;;4892774;29;20185;-39
2023/11/28 02:27:23;;;;;;;18.35;17.05;;;2.60;99.90;;;;;;4885562;29;20275;-39
2023/11/28 02:29:49;;;;;;;18.30;17.00;;;2.60;99.90;;;;;;4880466;29;20267;-39
2023/11/28 02:32:14;;;;;;;18.80;17.50;;;2.60;99.90;;;;;;4888706;29;20761;-38
2023/11/28 02:34:40;;;;;;;18.33;17.00;;;2.60;99.90;;;;;;4878899;29;20188;-38
2023/11/28 02:37:06;;;;;;;18.93;17.43;;;2.60;99.90;;;;;;4891632;29;20227;-37
2023/11/28 02:39:31;;;;;;;19.75;18.23;;;2.60;99.90;;;;;;4883386;29;20218;-38
2023/11/28 02:41:57;;;;;;;18.90;17.60;;;2.60;99.90;;;;;;4884816;29;20191;-38
2023/11/28 02:44:23;;;;;;;19.93;18.20;;;2.60;99.90;;;;;;4881101;29;20201;-39
2023/11/28 02:46:48;;;;;;;19.10;17.60;;;2.50;99.90;;;;;;4878266;29;20562;-38
2023/11/28 02:49:14;;;;;;;18.63;17.23;;;2.60;99.90;;;;;;4889877;29;20627;-39
2023/11/28 02:51:40;;;;;;;19.20;17.80;;;2.60;99.90;;;;;;4889429;29;20241;-39
2023/11/28 02:54:06;;;;;;;19.43;17.80;;;2.60;99.90;;;;;;4874786;29;20678;-38
2023/11/28 02:56:32;;;;;;;18.97;17.67;;;2.60;99.90;;;;;;4876317;29;20307;-38
2023/11/28 02:58:57;;;;;;;18.93;17.43;;;2.60;99.90;;;;;;4880912;29;20631;-39
2023/11/28 03:01:23;;;;;;;18.60;17.30;;;2.60;99.90;;;;;;4887262;29;20183;-39
2023/11/28 03:03:49;;;;;;;18.50;17.20;;;2.60;99.90;;;;;;4877551;29;20535;-39
2023/11/28 03:06:14;;;;;;;18.43;17.13;;;2.60;99.90;;;;;;4885232;29;20528;-39
2023/11/28 03:08:40;;;;;;;18.90;17.40;;;2.50;99.90;;;;;;4881762;29;20200;-39
2023/11/28 03:11:07;;;;;;;18.43;17.03;;;2.50;99.90;;;;;;4893864;29;20198;-39
2023/11/28 03:13:33;;;;;;;18.95;17.45;;;2.50;99.90;;;;;;4880524;29;20189;-39
2023/11/28 03:15:58;;;;;;;18.83;17.43;;;2.50;99.90;;;;;;4884943;29;20274;-39
2023/11/28 03:18:24;;;;;;;19.17;17.73;;;2.50;99.90;;;;;;4880377;29;20211;-39
2023/11/28 03:20:49;;;;;;;18.83;17.43;;;2.40;99.90;;;;;;4882238;29;20191;-39
2023/11/28 03:23:15;;;;;;;19.70;18.10;;;2.40;99.90;;;;;;4881666;29;20193;-39
2023/11/28 03:25:40;;;;;;;19.50;18.00;;;2.40;99.90;;;;;;4886984;29;20192;-39
2023/11/28 03:28:06;;;;;;;20.40;18.70;;;2.40;99.90;;;;;;4880030;29;20636;-39
2023/11/28 03:30:32;;;;;;;21.60;19.70;;;2.30;99.90;;;;;;4891714;29;20883;-40
2023/11/28 03:32:57;;;;;;;21.37;19.57;;;2.40;99.90;;;;;;4883328;29;20319;-40
2023/11/28 03:35:23;;;;;;;20.50;18.80;;;2.40;99.90;;;;;;4888023;29;20192;-38
2023/11/28 03:37:49;;;;;;;21.00;19.27;;;2.40;99.90;;;;;;4885456;29;20192;-38
2023/11/28 03:40:15;;;;;;;22.20;20.00;;;2.50;99.90;;;;;;4895731;29;20194;-39
2023/11/28 03:42:40;;;;;;;20.40;18.80;;;2.50;99.90;;;;;;4883162;29;20452;-39
2023/11/28 03:45:07;;;;;;;20.77;19.07;;;2.50;99.90;;;;;;4887785;29;20200;-40
2023/11/28 03:47:33;;;;;;;22.33;20.15;;;2.50;99.90;;;;;;4877187;29;20433;-39
2023/11/28 03:49:59;;;;;;;20.80;19.00;;;2.60;99.90;;;;;;4883092;29;20538;-39
2023/11/28 03:52:24;;;;;;;21.40;19.30;;;2.60;99.90;;;;;;4880589;29;20191;-38
2023/11/28 03:54:50;;;;;;;22.67;20.47;;;2.60;99.90;;;;;;4878269;29;20192;-39
2023/11/28 03:57:16;;;;;;;22.80;20.63;;;2.60;99.90;;;;;;4891511;29;20195;-38
2023/11/28 03:59:41;;;;;;;23.33;21.07;;;2.60;99.90;;;;;;4881473;29;20213;-39
2023/11/28 04:02:07;;;;;;;23.40;21.10;;;2.50;99.90;;;;;;4884216;29;20946;-39
2023/11/28 04:04:33;;;;;;;21.97;20.00;;;2.50;99.90;;;;;;4878469;29;20278;-39
2023/11/28 04:06:59;;;;;;;24.25;22.05;;;2.50;99.90;;;;;;4883842;29;20216;-38
2023/11/28 04:09:24;;;;;;;25.13;22.80;;;2.50;99.90;;;;;;4884745;29;20742;-38
2023/11/28 04:11:50;;;;;;;24.80;22.50;;;2.50;99.90;;;;;;4892704;29;20200;-39
2023/11/28 04:14:16;;;;;;;25.43;22.67;;;2.50;99.90;;;;;;4869797;29;20200;-39
2023/11/28 04:16:42;;;;;;;27.67;23.65;;;2.60;99.90;;;;;;4890037;29;20214;-39
2023/11/28 04:19:07;;;;;;;27.40;23.83;;;2.60;99.90;;;;;;4879186;29;20220;-39
2023/11/28 04:21:33;;;;;;;24.50;22.13;;;2.60;99.90;;;;;;4891952;29;20202;-38
2023/11/28 04:23:59;;;;;;;27.20;24.50;;;2.60;99.90;;;;;;4892297;29;20211;-38
2023/11/28 04:26:25;;;;;;;26.47;23.70;;;2.60;99.90;;;;;;4892755;29;20510;-39
2023/11/28 04:28:50;;;;;;;26.93;24.30;;;2.60;99.90;;;;;;4884123;29;20213;-38
2023/11/28 04:31:17;;;;;;;25.23;22.53;;;2.60;99.90;;;;;;4896436;29;21017;-39
2023/11/28 04:33:43;;;;;;;26.10;23.50;;;2.60;99.90;;;;;;4886881;29;20639;-39
2023/11/28 04:36:09;;;;;;;30.63;23.60;;;2.60;99.90;;;;;;4879194;29;20191;-39
2023/11/28 04:38:35;;;;;;;27.10;24.20;;;2.60;99.90;;;;;;4891339;29;20206;-38
2023/11/28 04:41:01;;;;;;;24.73;22.25;;;2.50;99.90;;;;;;4889326;29;20860;-38
2023/11/28 04:43:26;;;;;;;26.30;23.50;;;2.60;99.90;;;;;;4893805;29;20223;-40
2023/11/28 04:45:53;;;;;;;26.67;24.07;;;2.50;99.90;;;;;;4881484;29;20188;-38
2023/11/28 04:48:19;;;;;;;25.65;23.20;;;2.50;99.90;;;;;;4888270;29;20800;-40
2023/11/28 04:50:44;;;;;;;26.60;23.70;;;2.50;99.90;;;;;;4883431;29;20193;-38
2023/11/28 04:53:10;;;;;;;27.30;24.70;;;2.50;99.90;;;;;;4896312;29;20997;-38
2023/11/28 04:55:35;;;;;;;26.37;22.40;;;2.50;99.90;;;;;;4881990;29;20205;-39
2023/11/28 04:58:01;;;;;;;29.07;24.33;;;2.50;99.90;;;;;;4895996;29;20698;-39
2023/11/28 05:00:27;;;;;;;25.67;23.03;;;2.50;99.90;;;;;;4885302;29;20226;-40
2023/11/28 05:02:52;;;;;;;26.43;23.50;;;2.40;99.90;;;;;;4871743;29;20219;-39
2023/11/28 05:05:18;;;;;;;28.97;25.77;;;2.40;99.90;;;;;;4885792;29;20188;-39
2023/11/28 05:07:43;;;;;;;29.40;26.20;;;2.40;99.90;;;;;;4883958;29;20192;-38
2023/11/28 05:10:09;;;;;;;28.33;25.33;;;2.40;99.90;;;;;;4882878;29;20188;-38
2023/11/28 05:12:35;;;;;;;29.40;25.73;;;2.30;99.90;;;;;;4882871;29;20256;-39
2023/11/28 05:15:02;;;;;;;29.25;25.45;;;2.30;99.90;;;;;;4876166;29;21279;-38
2023/11/28 05:17:28;;;;;;;29.50;26.33;;;2.30;99.90;;;;;;4886583;29;20684;-39
2023/11/28 05:19:54;;;;;;;30.93;25.37;;;2.20;99.90;;;;;;4873969;29;20208;-39
2023/11/28 05:22:19;;;;;;;33.10;27.20;;;2.20;99.90;;;;;;4876414;29;20214;-39
2023/11/28 05:24:45;;;;;;;34.67;28.50;;;2.10;99.90;;;;;;4880880;29;20207;-39
2023/11/28 05:27:10;;;;;;;32.13;28.00;;;2.10;99.90;;;;;;4877990;29;20202;-39
2023/11/28 05:29:36;;;;;;;32.37;26.63;;;2.10;99.90;;;;;;4875559;29;20203;-39
2023/11/28 05:32:04;;;;;;;32.00;28.40;;;2.10;99.90;;;;;;4885275;29;20276;-38
2023/11/28 05:34:30;;;;;;;33.08;27.50;;;2.10;99.90;;;;;;4875026;29;20260;-38
2023/11/28 05:36:56;;;;;;;31.40;27.10;;;2.00;99.90;;;;;;4869247;29;20584;-38
2023/11/28 05:39:22;;;;;;;31.23;26.23;;;2.00;99.90;;;;;;4876457;29;20563;-38
2023/11/28 05:41:48;;;;;;;30.10;26.83;;;2.00;99.90;;;;;;4884807;29;20191;-38
2023/11/28 05:44:13;;;;;;;31.13;27.17;;;1.90;99.90;;;;;;4858907;29;20205;-38
2023/11/28 05:46:40;;;;;;;35.57;27.97;;;1.90;99.90;;;;;;4871227;29;20184;-38
2023/11/28 05:49:05;;;;;;;31.63;26.83;;;1.90;99.90;;;;;;4875314;29;21021;-38
2023/11/28 05:51:31;;;;;;;31.73;26.23;;;1.90;99.90;;;;;;4868162;29;20193;-37
2023/11/28 05:53:58;;;;;;;29.83;26.50;;;1.80;99.90;;;;;;4870429;29;20275;-38
2023/11/28 05:56:24;;;;;;;35.90;28.63;;;1.80;99.90;;;;;;4879978;29;20191;-37
2023/11/28 05:58:49;;;;;;;34.60;28.70;;;1.80;99.90;;;;;;4865343;29;20215;-38
2023/11/28 06:01:15;;;;;;;37.10;27.83;;;1.80;99.90;;;;;;4868299;29;20200;-38
2023/11/28 06:03:41;;;;;;;31.53;26.90;;;1.80;99.90;;;;;;4885378;29;20192;-39
2023/11/28 06:06:07;;;;;;;35.40;28.20;;;1.80;99.90;;;;;;4885335;29;20234;-38
2023/11/28 06:08:32;;;;;;;32.07;27.30;;;1.70;99.90;;;;;;4880103;29;20468;-39
2023/11/28 06:10:58;;;;;;;37.97;30.27;;;1.80;99.90;;;;;;4868111;29;20279;-38
2023/11/28 06:13:24;;;;;;;34.40;28.17;;;1.70;99.90;;;;;;4851508;29;20196;-39
2023/11/28 06:15:49;;;;;;;36.20;28.80;;;1.70;99.90;;;;;;4867487;29;20244;-39
2023/11/28 06:18:15;;;;;;;35.60;27.60;;;1.60;99.90;;;;;;4867869;29;20258;-39
2023/11/28 06:20:41;;;;;;;31.27;27.20;;;1.60;99.90;;;;;;4867830;29;20192;-39
2023/11/28 06:23:06;;;;;;;37.40;30.30;;;1.60;99.90;;;;;;4867975;29;21072;-38
2023/11/28 06:25:32;;;;;;;32.40;28.30;;;1.60;99.90;;;;;;4867831;29;20424;-39
2023/11/28 06:27:58;;;;;;;34.97;28.57;;;1.60;99.90;;;;;;4867670;29;20255;-38
2023/11/28 06:30:23;;;;;;;35.47;27.30;;;1.60;99.90;;;;;;4868014;29;20191;-38
2023/11/28 06:32:49;;;;;;;34.07;28.40;;;1.60;99.90;;;;;;4866426;29;21425;-39
2023/11/28 06:35:15;;;;;;;29.77;25.80;;;1.60;99.90;;;;;;4867329;29;20567;-39
2023/11/28 06:37:40;;;;;;;32.43;26.90;;;1.60;99.90;;;;;;4867347;29;20195;-39
2023/11/28 06:40:06;;;;;;;33.23;28.67;;;1.60;99.90;;;;;;4867558;29;20612;-39
2023/11/28 06:42:32;;;;;;;32.85;27.58;;;1.50;99.90;;;;;;4867878;29;20183;-39
2023/11/28 06:44:58;;;;;;;32.30;27.10;;;1.40;99.90;;;;;;4867485;29;20822;-39
2023/11/28 06:47:23;;;;;;;28.50;25.33;;;1.40;99.90;;;;;;4867216;29;20191;-40
2023/11/28 06:49:49;;;;;;;29.13;26.00;;;1.40;99.90;;;;;;4867294;29;20192;-39
2023/11/28 06:52:16;;;;;;;31.42;26.13;;;1.40;99.90;;;;;;4868970;29;21078;-39
2023/11/28 06:54:42;;;;;;;32.20;24.42;;;1.40;99.90;;;;;;4880298;29;20746;-38
2023/11/28 06:57:08;;;;;;;26.33;23.70;;;1.40;99.90;;;;;;4879464;29;20215;-38
2023/11/28 06:59:35;;;;;;;29.40;24.17;;;1.40;99.90;;;;;;4884478;29;20290;-38
2023/11/28 07:02:00;;;;;;;29.40;26.35;;;1.30;99.90;;;;;;4860226;29;20198;-38
2023/11/28 07:04:26;;;;;;;26.70;23.67;;;1.40;99.90;;;;;;4870050;29;20219;-38
2023/11/28 07:06:51;;;;;;;28.17;24.47;;;1.30;99.90;;;;;;4878529;29;20197;-38
2023/11/28 07:09:17;;;;;;;28.13;25.20;;;1.40;99.90;;;;;;4884151;29;20202;-38
2023/11/28 07:11:43;;;;;;;31.93;25.23;;;1.40;99.90;;;;;;4879830;29;20190;-37
2023/11/28 07:14:08;;;;;;;28.63;24.67;;;1.30;99.90;;;;;;4882837;29;20186;-38
2023/11/28 07:16:37;;;;;;;28.00;24.43;;;1.30;99.90;;;;;;4880860;29;20427;-38
2023/11/28 07:19:03;;;;;;;24.83;22.30;;;1.30;99.90;;;;;;4867933;29;20326;-39
2023/11/28 07:21:28;;;;;;;31.10;26.23;;;1.30;99.90;;;;;;4873951;29;20275;-56
2023/11/28 07:23:54;;;;;;;27.07;23.77;;;1.30;99.90;;;;;;4884594;29;20193;-53
2023/11/28 07:26:19;;;;;;;25.73;23.23;;;1.30;99.90;;;;;;4881040;29;20580;-58
2023/11/28 07:28:45;;;;;;;26.03;23.23;;;1.20;99.90;;;;;;4868686;29;20207;-53
2023/11/28 07:31:14;;;;;;;26.75;22.50;;;1.20;99.90;;;;;;4876343;29;20191;-52
2023/11/28 07:33:39;;;;;;;25.75;23.05;;;1.20;99.90;;;;;;4875599;29;20531;-53
2023/11/28 07:36:12;;;;;;;29.63;24.60;;;1.20;99.90;;;;;;4884403;29;20202;-53
2023/11/28 07:38:38;;;;;;;26.05;23.35;;;1.10;99.90;;;;;;4876618;29;20234;-54
2023/11/28 07:41:05;;;;;;;26.20;23.40;;;1.20;99.90;;;;;;4882711;29;20179;-54
2023/11/28 07:43:33;;;;;;;24.88;22.38;;;1.20;99.90;;;;;;4875795;29;20235;-51
2023/11/28 07:45:58;;;;;;;26.90;24.13;;;1.10;99.90;;;;;;4871179;29;21308;-54
2023/11/28 07:48:24;;;;;;;27.60;23.37;;;1.10;99.90;;;;;;4856787;29;20184;-56
2023/11/28 07:50:49;;;;;;;26.63;23.83;;;1.10;99.90;;;;;;4869779;29;20192;-54
2023/11/28 07:53:15;;;;;;;26.23;23.40;;;1.00;99.90;;;;;;4869809;29;20203;-51
2023/11/28 07:55:41;;;;;;;24.70;22.07;;;0.90;99.90;;;;;;4883447;29;20662;-53
2023/11/28 07:58:07;;;;;;;29.40;24.13;;;1.00;99.90;;;;;;4871860;29;20563;-53
2023/11/28 08:00:32;;;;;;;24.73;22.27;;;1.00;99.90;;;;;;4882235;29;20187;-46
2023/11/28 08:02:58;;;;;;;24.70;21.73;;;1.00;99.90;;;;;;4873499;29;20191;-52
2023/11/28 08:05:24;;;;;;;24.83;22.15;;;1.00;99.90;;;;;;4888031;29;20214;-57
2023/11/28 08:07:50;;;;;;;25.00;22.60;;;1.10;99.90;;;;;;4875619;29;20263;-54
2023/11/28 08:10:15;;;;;;;25.57;22.30;;;1.10;99.90;;;;;;4886604;29;20400;-56
2023/11/28 08:12:41;;;;;;;25.50;22.77;;;1.10;99.90;;;;;;4879504;29;20211;-55
2023/11/28 08:15:07;;;;;;;24.80;22.23;;;1.00;99.90;;;;;;4884811;29;20196;-50
2023/11/28 08:17:33;;;;;;;24.73;22.42;;;1.00;99.90;;;;;;4874906;29;20659;-55
2023/11/28 08:19:59;;;;;;;24.80;22.10;;;1.00;99.90;;;;;;4872334;29;20387;-54
2023/11/28 08:22:25;;;;;;;25.53;22.83;;;1.00;99.90;;;;;;4883060;29;20429;-56
2023/11/28 08:24:51;;;;;;;26.27;23.75;;;1.00;99.90;;;;;;4885167;29;21601;-55
2023/11/28 08:27:18;;;;;;;26.75;24.20;;;1.00;99.90;;;;;;4884037;29;20598;-54
2023/11/28 08:29:43;;;;;;;26.10;23.58;;;1.00;99.90;;;;;;4880764;29;20323;-51
2023/11/28 08:32:09;;;;;;;26.63;23.87;;;1.00;99.90;;;;;;4885213;29;20322;-55
2023/11/28 08:34:35;;;;;;;28.10;25.20;;;1.00;99.90;;;;;;4884073;29;20695;-49
2023/11/28 08:37:02;;;;;;;26.52;23.92;;;1.10;99.90;;;;;;4885490;29;20530;-54
2023/11/28 08:39:27;;;;;;;25.67;23.33;;;1.10;99.90;;;;;;4881384;29;20266;-53
2023/11/28 08:41:54;;;;;;;25.87;23.23;;;1.10;99.90;;;;;;4887558;29;20176;-56
2023/11/28 08:44:20;;;;;;;27.05;24.35;;;1.10;99.90;;;;;;4881647;29;20427;-55
2023/11/28 08:46:46;;;;;;;26.10;23.40;;;1.10;99.90;;;;;;4878377;29;20191;-54
2023/11/28 08:49:11;;;;;;;27.17;24.47;;;1.10;99.90;;;;;;4876204;29;20479;-49
2023/11/28 08:51:37;;;;;;;26.60;23.77;;;1.10;99.90;;;;;;4875521;29;20206;-56
2023/11/28 08:54:03;;;;;;;27.00;24.30;;;1.00;99.90;;;;;;4865244;29;20198;-54
2023/11/28 08:56:28;;;;;;;26.47;23.97;;;1.00;99.90;;;;;;4886929;29;20266;-54
2023/11/28 08:58:54;;;;;;;27.10;24.53;;;1.00;99.90;;;;;;4875148;29;21157;-53
2023/11/28 09:01:19;;;;;;;29.33;25.93;;;1.00;99.90;;;;;;4884896;29;20191;-56
2023/11/28 09:03:45;;;;;;;30.67;25.60;;;1.00;99.90;;;;;;4880270;29;20709;-55
2023/11/28 09:06:11;;;;;;;28.90;25.80;;;1.00;99.90;;;;;;4879944;29;20206;-56
2023/11/28 09:08:36;;;;;;;28.90;26.00;;;1.00;99.90;;;;;;4884961;29;20210;-55
2023/11/28 09:11:05;;;;;;;29.30;26.10;;;1.00;99.90;;;;;;4884691;29;20195;-58
2023/11/28 09:13:31;;;;;;;28.40;25.63;;;1.00;99.90;;;;;;4863257;29;20199;-57
2023/11/28 09:15:59;;;;;;;28.57;25.87;;;1.00;99.90;;;;;;4880298;29;20179;-55
2023/11/28 09:18:24;;;;;;;27.60;24.67;;;1.00;99.90;;;;;;4885990;29;21195;-56
2023/11/28 09:20:50;;;;;;;28.17;25.37;;;1.00;99.90;;;;;;4883223;29;20203;-57
2023/11/28 09:23:15;;;;;;;27.63;24.60;;;1.00;99.90;;;;;;4881079;29;20763;-54
2023/11/28 09:25:41;;;;;;;28.57;25.60;;;1.00;99.90;;;;;;4877443;29;20243;-55
2023/11/28 09:28:06;;;;;;;26.87;24.07;;;1.00;99.90;;;;;;4882912;29;20190;-46
2023/11/28 09:30:32;;;;;;;27.50;24.07;;;1.00;99.90;;;;;;4876680;29;20195;-56
2023/11/28 09:32:58;;;;;;;26.73;23.87;;;1.00;99.90;;;;;;4865671;29;20663;-55
2023/11/28 09:35:24;;;;;;;27.53;23.50;;;1.00;99.90;;;;;;4858055;29;20830;-53
2023/11/28 09:37:51;;;;;;;27.00;24.20;;;1.00;99.90;;;;;;4865653;29;21079;-53
2023/11/28 09:40:17;;;;;;;25.77;23.20;;;1.10;99.90;;;;;;4866601;29;20852;-56
2023/11/28 09:42:43;;;;;;;25.90;23.30;;;1.10;99.90;;;;;;4867982;29;20188;-57
2023/11/28 09:45:11;;;;;;;25.90;23.40;;;1.10;99.90;;;;;;4855339;29;20191;-50
2023/11/28 09:47:43;;;;;;;24.48;22.15;;;1.10;99.90;;;;;;4859489;29;20284;-53
2023/11/28 09:50:12;;;;;;;26.63;24.23;;;1.10;99.90;;;;;;4851462;29;20244;-54
2023/11/28 09:52:40;;;;;;;26.17;23.65;;;1.20;99.90;;;;;;4854568;29;20196;-55
2023/11/28 09:55:08;;;;;;;26.35;23.77;;;1.20;99.90;;;;;;4861588;29;20560;-52
2023/11/28 09:57:38;;;;;;;26.98;24.20;;;1.20;99.90;;;;;;4867675;29;20190;-57
2023/11/28 10:00:05;;;;;;;25.83;23.33;;;1.10;99.90;;;;;;4855209;29;20272;-52
2023/11/28 10:02:31;;;;;;;25.15;22.80;;;1.10;99.90;;;;;;4864543;29;20183;-54
2023/11/28 10:04:57;;;;;;;26.58;23.98;;;1.10;99.90;;;;;;4854420;29;20193;-55
2023/11/28 10:07:32;;;;;;;26.10;23.53;;;1.10;99.90;;;;;;4849435;29;20250;-47
2023/11/28 10:10:00;;;;;;;26.77;24.27;;;1.20;99.90;;;;;;4849805;29;20303;-54
2023/11/28 10:12:26;;;;;;;25.98;23.40;;;1.20;99.90;;;;;;4849927;29;20195;-54
2023/11/28 10:14:53;;;;;;;26.15;23.50;;;1.30;99.90;;;;;;4849676;29;20279;-52
2023/11/28 10:17:19;;;;;;;24.95;22.75;;;1.30;99.90;;;;;;4849751;29;20184;-55
2023/11/28 10:19:46;;;;;;;24.80;22.30;;;1.30;99.90;;;;;;4849686;29;20227;-54
2023/11/28 10:22:12;;;;;;;23.38;21.17;;;1.40;99.90;;;;;;4866891;29;20219;-53
2023/11/28 10:24:39;;;;;;;23.55;21.45;;;1.40;99.90;;;;;;4860854;29;20197;-52
2023/11/28 10:27:05;;;;;;;23.40;21.20;;;1.40;99.90;;;;;;4849407;29;20185;-50
2023/11/28 10:29:32;;;;;;;22.23;20.42;;;1.50;99.90;;;;;;4849544;29;20549;-54
2023/11/28 10:31:59;;;;;;;24.25;21.95;;;1.40;80.90;;;;;;4855558;29;20232;-54
2023/11/28 10:34:24;;;;;;;24.52;22.10;;;1.30;71.20;;;;;;4855285;29;20198;-54
2023/11/28 10:36:51;;;;;;;25.43;22.70;;;1.30;74.80;;;;;;4885993;29;20206;-54
2023/11/28 10:39:20;;;;;;;23.70;21.60;;;1.30;84.30;;;;;;4882996;29;21290;-54
2023/11/28 10:41:47;;;;;;;24.20;21.83;;;1.30;92.60;;;;;;4867802;29;20592;-57
2023/11/28 10:44:12;;;;;;;25.42;23.15;;;1.30;92.40;;;;;;4867662;29;20589;-56
2023/11/28 10:46:39;;;;;;;25.20;23.00;;;1.20;86.00;;;;;;4867669;29;20260;-57
2023/11/28 10:49:05;;;;;;;24.85;22.67;;;1.30;94.80;;;;;;4867767;29;20903;-57
2023/11/28 10:51:32;;;;;;;25.13;22.73;;;1.30;87.50;;;;;;4865804;29;20613;-56
2023/11/28 10:54:09;;;;;;;24.15;21.92;;;1.30;83.30;;;;;;4870864;29;20194;-52
2023/11/28 10:56:59;;;;;;;25.45;22.90;;;1.30;75.50;;;;;;4875424;29;20597;-52
2023/11/28 10:59:35;;;;;;;24.55;22.27;;;1.30;76.20;;;;;;4866428;29;20219;-53
2023/11/28 11:02:03;;;;;;;23.65;21.30;;;1.30;77.50;;;;;;4866894;29;20275;-58
2023/11/28 11:04:29;;;;;;;24.30;21.92;;;1.30;82.10;;;;;;4881107;29;20205;-50
2023/11/28 11:06:56;;;;;;;24.02;21.73;;;1.30;86.70;;;;;;4875486;29;20310;-53
2023/11/28 11:09:26;;;;;;;24.63;22.23;;;1.30;80.00;;;;;;4885316;29;20202;-54
2023/11/28 11:11:55;;;;;;;22.88;20.83;;;1.30;74.60;;;;;;4879454;29;20227;-48
2023/11/28 11:14:48;;;;;;;24.17;21.95;;;1.30;68.90;;;;;;4882359;29;20199;-54
2023/11/28 11:17:43;;;;;;;25.40;22.90;;;1.30;75.70;;;;;;4880352;29;20195;-52
2023/11/28 11:20:10;;;;;;;24.92;22.73;;;1.20;82.70;;;;;;4871768;29;20234;-53
2023/11/28 11:22:41;;;;;;;26.27;23.75;;;1.20;94.00;;;;;;4878587;29;20183;-52
2023/11/28 11:25:08;;;;;;;23.83;21.73;;;1.20;98.00;;;;;;4868441;29;20172;-55
2023/11/28 11:27:34;;;;;;;26.08;23.38;;;1.20;99.90;;;;;;4867533;29;20685;-56
2023/11/28 11:30:04;;;;;;;26.10;23.37;;;1.20;99.90;;;;;;4874088;29;20191;-55
2023/11/28 11:32:32;;;;;;;25.25;22.13;;;1.20;99.90;;;;;;4877704;29;20242;-54
2023/11/28 11:34:58;;;;;;;26.67;24.00;;;1.20;99.90;;;;;;4883922;29;20199;-55
2023/11/28 11:37:32;;;;;;;23.95;21.60;;;1.30;99.90;;;;;;4878090;29;20556;-52
2023/11/28 11:40:02;;;;;;;26.90;24.25;;;1.30;99.90;;;;;;4885356;29;20251;-55
2023/11/28 11:42:35;;;;;;;27.60;24.75;;;1.30;99.90;;;;;;4886723;29;20190;-54
2023/11/28 11:45:06;;;;;;;25.77;23.38;;;1.30;99.90;;;;;;4888937;29;20251;-54
2023/11/28 11:47:33;;;;;;;27.17;24.55;;;1.20;99.90;;;;;;4880862;29;20194;-54
2023/11/28 11:50:01;;;;;;;28.83;26.13;;;1.20;99.90;;;;;;4870629;29;20196;-50
2023/11/28 11:52:29;;;;;;;34.50;30.85;;;1.20;99.90;;;;;;4871793;29;21271;-55
2023/11/28 11:55:07;;;;;;;62.35;46.03;;;1.10;99.90;;;;;;4877335;29;20199;-56
2023/11/28 11:57:33;;;;;;;53.13;41.13;;;1.10;99.90;;;;;;4882934;29;20187;-53
2023/11/28 12:00:00;;;;;;;29.67;26.83;;;1.00;99.90;;;;;;4883365;29;20295;-50
2023/11/28 12:02:40;;;;;;;30.67;24.23;;;1.10;99.90;;;;;;4876890;29;20724;-54
2023/11/28 12:05:06;;;;;;;48.60;42.17;;;1.20;99.90;;;;;;4870581;29;20183;-56
2023/11/28 12:07:33;;;;;;;33.13;29.58;;;1.10;99.90;;;;;;4877182;29;20207;-53
2023/11/28 12:10:08;;;;;;;28.73;25.83;;;1.10;96.80;;;;;;4887949;29;20227;-52
2023/11/28 12:12:34;;;;;;;37.22;33.10;;;1.00;96.30;;;;;;4886727;29;20187;-54
2023/11/28 12:15:00;;;;;;;28.38;25.65;;;1.10;94.20;;;;;;4887890;29;20187;-54
2023/11/28 12:17:26;;;;;;;25.27;22.80;;;1.00;94.10;;;;;;4875843;29;20210;-54
2023/11/28 12:19:51;;;;;;;27.37;24.63;;;1.00;92.10;;;;;;4882487;29;20967;-53
2023/11/28 12:22:17;;;;;;;24.43;22.27;;;1.00;88.20;;;;;;4871686;29;20184;-50
2023/11/28 12:24:43;;;;;;;24.50;22.30;;;0.90;94.70;;;;;;4886453;29;20194;-51
2023/11/28 12:27:10;;;;;;;25.07;22.90;;;1.00;94.30;;;;;;4881861;29;20187;-55
2023/11/28 12:29:37;;;;;;;26.02;23.48;;;0.90;99.90;;;;;;4881617;29;20487;-53
2023/11/28 12:32:03;;;;;;;25.65;22.95;;;1.00;99.90;;;;;;4878395;29;20231;-52